Time;durP1;ratioP1;P1;durP2;ratioP2;P2;SDS_P1;SDS_P2;PMS_P1;PMS_P2;Temp;Humidity;BMP_temperature;BMP_pressure;BME280_temperature;BME280_humidity;BME280_pressure;Samples;Min_cycle;Max_cycle;Signal;HPM_P1;HPM_P2
2022/08/02 00:02:22;;;;;;;5.53;3.22;;;16.40;99.90;;;;;;5064810;28;20109;-75
2022/08/02 00:04:48;;;;;;;4.75;2.90;;;16.30;99.90;;;;;;5067907;28;20052;-75
2022/08/02 00:07:14;;;;;;;4.90;2.83;;;16.20;99.90;;;;;;5050182;28;20041;-75
2022/08/02 00:09:40;;;;;;;5.43;2.85;;;16.20;99.90;;;;;;5045021;28;20048;-75
2022/08/02 00:12:06;;;;;;;4.55;3.10;;;16.10;99.90;;;;;;5051089;28;20409;-75
2022/08/02 00:14:32;;;;;;;5.97;2.80;;;16.10;99.90;;;;;;5050152;28;20406;-75
2022/08/02 00:16:58;;;;;;;5.78;3.00;;;16.10;99.90;;;;;;5031030;28;20041;-75
2022/08/02 00:19:23;;;;;;;6.40;3.17;;;16.10;99.90;;;;;;5031365;28;20046;-75
2022/08/02 00:21:49;;;;;;;7.85;2.90;;;16.10;99.90;;;;;;5031734;28;20053;-76
2022/08/02 00:24:14;;;;;;;6.40;3.00;;;16.00;99.90;;;;;;5031079;28;20064;-75
2022/08/02 00:26:40;;;;;;;6.85;3.13;;;16.00;99.90;;;;;;5031802;28;20095;-74
2022/08/02 00:29:06;;;;;;;7.88;2.80;;;15.90;99.90;;;;;;5032143;28;20104;-75
2022/08/02 00:31:32;;;;;;;4.57;3.08;;;15.90;99.90;;;;;;5032610;28;20051;-75
2022/08/02 00:33:57;;;;;;;4.40;2.80;;;15.80;99.90;;;;;;5051226;28;20043;-75
2022/08/02 00:36:23;;;;;;;6.68;2.78;;;15.90;99.90;;;;;;5052390;28;20053;-75
2022/08/02 00:38:49;;;;;;;6.63;3.10;;;15.90;99.90;;;;;;5055493;28;20095;-75
2022/08/02 00:41:17;;;;;;;5.35;3.10;;;15.90;99.90;;;;;;5036433;28;20056;-75
2022/08/02 00:43:44;;;;;;;7.15;3.03;;;15.90;99.90;;;;;;5067842;28;20503;-75
2022/08/02 00:46:10;;;;;;;4.95;2.65;;;15.80;99.90;;;;;;5034434;28;20041;-75
2022/08/02 00:48:36;;;;;;;7.30;3.13;;;15.80;99.90;;;;;;5033274;28;20455;-75
2022/08/02 00:51:02;;;;;;;4.30;2.83;;;15.80;99.90;;;;;;5067761;28;20050;-74
2022/08/02 00:53:28;;;;;;;3.35;2.60;;;15.80;99.90;;;;;;5067829;28;20060;-75
2022/08/02 00:55:54;;;;;;;5.82;2.58;;;15.80;99.90;;;;;;5034862;28;20393;-75
2022/08/02 00:58:20;;;;;;;5.25;2.83;;;15.80;99.90;;;;;;5035471;28;20390;-75
2022/08/02 01:00:45;;;;;;;4.95;2.90;;;15.80;99.90;;;;;;5039053;28;20052;-75
2022/08/02 01:03:11;;;;;;;7.05;2.80;;;15.70;99.90;;;;;;5054609;28;20059;-75
2022/08/02 01:05:37;;;;;;;5.72;3.08;;;15.70;99.90;;;;;;5053381;28;20041;-75
2022/08/02 01:08:02;;;;;;;5.68;3.00;;;15.70;99.90;;;;;;5055409;28;20373;-75
2022/08/02 01:10:28;;;;;;;6.88;3.30;;;15.70;99.90;;;;;;5054775;28;20098;-75
2022/08/02 01:12:54;;;;;;;6.50;2.92;;;15.60;99.90;;;;;;5053991;28;20041;-75
2022/08/02 01:15:20;;;;;;;4.78;2.88;;;15.60;99.90;;;;;;5038776;28;20178;-75
2022/08/02 01:18:04;;;;;;;3.88;2.80;;;15.60;99.90;;;;;;5071581;28;20060;-75
2022/08/02 01:20:41;;;;;;;6.05;2.88;;;15.60;99.90;;;;;;5053234;28;20137;-75
2022/08/02 01:23:49;;;;;;;6.70;3.20;;;15.50;99.90;;;;;;5051935;28;20081;-75
2022/08/02 01:26:45;;;;;;;6.82;3.45;;;15.60;99.90;;;;;;5053495;28;20093;-75
2022/08/02 01:29:20;;;;;;;6.00;3.00;;;15.50;99.90;;;;;;5033871;28;20525;-75
2022/08/02 01:31:57;;;;;;;4.38;3.17;;;15.60;99.90;;;;;;5035489;28;20044;-75
2022/08/02 01:34:42;;;;;;;5.18;3.08;;;15.50;99.90;;;;;;5041690;28;20037;-75
2022/08/02 01:37:10;;;;;;;5.55;3.05;;;15.60;99.90;;;;;;5039940;28;20515;-75
2022/08/02 01:39:39;;;;;;;5.30;3.33;;;15.60;99.90;;;;;;5035032;28;20053;-75
2022/08/02 01:42:06;;;;;;;5.47;3.33;;;15.40;99.90;;;;;;5066871;28;20049;-75
2022/08/02 01:44:35;;;;;;;6.80;3.47;;;15.50;99.90;;;;;;5066189;28;20045;-74
2022/08/02 01:47:08;;;;;;;5.85;3.28;;;15.50;99.90;;;;;;5034612;28;20050;-75
2022/08/02 01:49:36;;;;;;;5.75;3.50;;;15.50;99.90;;;;;;5034692;28;20042;-75
2022/08/02 01:52:21;;;;;;;5.75;3.60;;;15.40;99.90;;;;;;5034020;28;20045;-74
2022/08/02 01:54:53;;;;;;;8.60;3.33;;;15.50;99.90;;;;;;5047063;28;20124;-74
2022/08/02 01:57:21;;;;;;;7.10;3.40;;;15.40;99.90;;;;;;5053457;28;20127;-75
2022/08/02 01:59:49;;;;;;;7.20;3.53;;;15.40;99.90;;;;;;5051972;28;20069;-75
2022/08/02 02:02:15;;;;;;;6.05;3.35;;;15.40;99.90;;;;;;5052677;28;20049;-75
2022/08/02 02:04:44;;;;;;;5.10;3.47;;;15.40;99.90;;;;;;5052297;28;20447;-75
2022/08/02 02:07:12;;;;;;;7.30;3.20;;;15.40;99.90;;;;;;5035502;28;20080;-75
2022/08/02 02:09:39;;;;;;;6.85;3.35;;;15.40;99.90;;;;;;5071543;28;20519;-74
2022/08/02 02:12:06;;;;;;;8.73;3.40;;;15.40;99.90;;;;;;5047506;28;20056;-75
2022/08/02 02:14:33;;;;;;;6.38;3.65;;;15.30;99.90;;;;;;5052878;28;20106;-75
2022/08/02 02:17:01;;;;;;;5.82;3.42;;;15.40;99.90;;;;;;5052909;28;20101;-75
2022/08/02 02:19:27;;;;;;;6.15;3.45;;;15.30;99.90;;;;;;5043299;28;20084;-75
2022/08/02 02:21:54;;;;;;;4.90;3.22;;;15.40;99.90;;;;;;5065738;28;20457;-74
2022/08/02 02:24:20;;;;;;;9.27;3.70;;;15.40;99.90;;;;;;5032719;28;20068;-74
2022/08/02 02:26:46;;;;;;;6.80;3.40;;;15.30;99.90;;;;;;5033203;28;20482;-75
2022/08/02 02:29:13;;;;;;;5.80;3.25;;;15.40;99.90;;;;;;5034126;28;20091;-75
2022/08/02 02:31:41;;;;;;;7.57;3.83;;;15.30;99.90;;;;;;5065428;28;20563;-75
2022/08/02 02:34:19;;;;;;;6.78;3.60;;;15.30;99.90;;;;;;5049387;28;20055;-74
2022/08/02 02:36:48;;;;;;;5.45;3.60;;;15.30;99.90;;;;;;5047288;28;20488;-75
2022/08/02 02:39:16;;;;;;;8.27;3.83;;;15.40;99.90;;;;;;5066047;28;20396;-75
2022/08/02 02:41:43;;;;;;;7.43;3.58;;;15.40;99.90;;;;;;5051548;28;20060;-75
2022/08/02 02:44:12;;;;;;;10.75;3.72;;;15.30;99.90;;;;;;5053731;28;20043;-75
2022/08/02 02:46:38;;;;;;;9.02;4.05;;;15.40;99.90;;;;;;5044155;28;20041;-75
2022/08/02 02:49:04;;;;;;;7.50;3.60;;;15.40;99.90;;;;;;5064662;28;20060;-75
2022/08/02 02:51:31;;;;;;;8.43;3.63;;;;;;;;;;5033523;28;20103;-75
2022/08/02 02:53:57;;;;;;;6.75;3.78;;;15.40;99.90;;;;;;5064476;28;20049;-74
2022/08/02 02:56:23;;;;;;;5.32;3.80;;;15.40;99.90;;;;;;5065442;28;20049;-75
2022/08/02 02:58:49;;;;;;;6.95;4.20;;;15.40;99.90;;;;;;5032782;28;20049;-75
2022/08/02 03:01:26;;;;;;;7.20;3.60;;;15.20;99.90;;;;;;5064113;28;20088;-75
2022/08/02 03:03:53;;;;;;;8.73;3.55;;;15.30;99.90;;;;;;5044798;28;20087;-75
2022/08/02 03:06:19;;;;;;;8.77;3.50;;;15.20;99.90;;;;;;5051472;28;20040;-75
2022/08/02 03:08:45;;;;;;;7.22;3.75;;;15.20;99.90;;;;;;5050867;28;20374;-75
2022/08/02 03:11:12;;;;;;;6.35;3.67;;;15.10;99.90;;;;;;5050487;28;20091;-75
2022/08/02 03:13:38;;;;;;;5.75;3.50;;;15.20;99.90;;;;;;5033296;28;20099;-75
2022/08/02 03:16:04;;;;;;;8.55;3.60;;;15.20;99.90;;;;;;5032416;28;20056;-75
2022/08/02 03:18:35;;;;;;;6.20;3.85;;;15.10;99.90;;;;;;5033035;28;20539;-75
2022/08/02 03:21:04;;;;;;;5.65;3.50;;;15.20;99.90;;;;;;5032649;28;20143;-75
2022/08/02 03:23:30;;;;;;;8.05;3.95;;;15.20;99.90;;;;;;5065582;28;20049;-75
2022/08/02 03:25:56;;;;;;;6.47;3.53;;;15.20;99.90;;;;;;5031703;28;20171;-75
2022/08/02 03:28:22;;;;;;;8.30;4.20;;;15.20;99.90;;;;;;5031825;28;20485;-75
2022/08/02 03:30:47;;;;;;;5.68;3.35;;;15.20;99.90;;;;;;5039568;28;20039;-75
2022/08/02 03:33:13;;;;;;;6.43;3.80;;;15.20;99.90;;;;;;5051688;28;20501;-75
2022/08/02 03:35:44;;;;;;;7.43;3.50;;;15.20;99.90;;;;;;5052715;28;20040;-75
2022/08/02 03:38:12;;;;;;;8.02;2.90;;;15.20;99.90;;;;;;5046503;28;20493;-75
2022/08/02 03:40:40;;;;;;;7.60;3.67;;;15.20;99.90;;;;;;5044348;28;20389;-75
2022/08/02 03:43:07;;;;;;;5.53;3.42;;;;;;;;;;5052171;28;20041;-74
2022/08/02 03:45:33;;;;;;;5.15;3.55;;;;;;;;;;5050496;28;20143;-75
2022/08/02 03:47:59;;;;;;;6.07;3.38;;;;;;;;;;5064732;28;20049;-75
2022/08/02 03:50:26;;;;;;;7.00;3.55;;;;;;;;;;5031910;28;20140;-75
2022/08/02 03:52:52;;;;;;;5.55;3.20;;;;;;;;;;5032833;28;20107;-75
2022/08/02 03:55:18;;;;;;;8.88;3.55;;;;;;;;;;5032560;28;20560;-76
2022/08/02 03:57:44;;;;;;;9.52;3.40;;;;;;;;;;5064269;28;20396;-75
2022/08/02 04:00:11;;;;;;;8.23;3.15;;;;;;;;;;5072233;28;20048;-74
2022/08/02 04:02:38;;;;;;;6.45;3.35;;;;;;;;;;5050069;28;20095;-75
2022/08/02 04:05:04;;;;;;;6.80;3.50;;;;;;;;;;5063714;28;20052;-75
2022/08/02 04:07:30;;;;;;;6.07;3.10;;;;;;;;;;5064950;28;20140;-75
2022/08/02 04:09:56;;;;;;;7.40;3.72;;;;;;;;;;5031085;28;20045;-75
2022/08/02 04:12:22;;;;;;;6.93;3.38;;;;;;;;;;5037156;28;20128;-75
2022/08/02 04:14:48;;;;;;;7.10;3.50;;;;;;;;;;5036449;28;20049;-75
2022/08/02 04:17:14;;;;;;;6.78;3.47;;;;;;;;;;5036529;28;20042;-74
2022/08/02 04:19:46;;;;;;;5.80;3.85;;;;;;;;;;5034505;28;20049;-75
2022/08/02 04:22:18;;;;;;;12.63;3.90;;;;;;;;;;5068156;28;20053;-75
2022/08/02 04:24:49;;;;;;;5.95;3.53;;;;;;;;;;5050013;28;20059;-75
2022/08/02 04:27:15;;;;;;;7.90;3.65;;;;;;;;;;5036463;28;20053;-75
2022/08/02 04:29:41;;;;;;;7.90;3.88;;;;;;;;;;5036340;28;20060;-75
2022/08/02 04:32:07;;;;;;;7.03;3.50;;;;;;;;;;5036200;28;20477;-75
2022/08/02 04:34:33;;;;;;;9.13;4.05;;;;;;;;;;5067442;28;20128;-75
2022/08/02 04:37:00;;;;;;;6.53;3.75;;;;;;;;;;5068108;28;20101;-75
2022/08/02 04:39:26;;;;;;;5.80;3.65;;;;;;;;;;5086883;28;20059;-75
2022/08/02 04:41:52;;;;;;;5.32;3.38;;;;;;;;;;5053216;28;20052;-75
2022/08/02 04:44:18;;;;;;;6.38;3.83;;;;;;;;;;5035928;28;20052;-75
2022/08/02 04:46:45;;;;;;;7.82;3.85;;;;;;;;;;5067333;28;20128;-75
2022/08/02 04:49:11;;;;;;;9.18;3.90;;;;;;;;;;5035956;28;20056;-75
2022/08/02 04:51:38;;;;;;;8.10;3.85;;;;;;;;;;5036097;28;20042;-75
2022/08/02 04:54:04;;;;;;;5.40;3.80;;;;;;;;;;5042030;28;20120;-75
2022/08/02 04:56:30;;;;;;;6.55;3.47;;;;;;;;;;5051842;28;20041;-75
2022/08/02 04:58:56;;;;;;;4.88;3.67;;;;;;;;;;5067720;28;20049;-75
2022/08/02 05:01:22;;;;;;;7.45;3.53;;;;;;;;;;5035085;28;20037;-75
2022/08/02 05:03:48;;;;;;;6.93;3.92;;;;;;;;;;5035802;28;20056;-75
2022/08/02 05:06:15;;;;;;;5.78;3.15;;;;;;;;;;5067936;28;20049;-75
2022/08/02 05:08:41;;;;;;;7.18;3.60;;;;;;;;;;5034759;28;20397;-75
2022/08/02 05:11:07;;;;;;;5.47;3.63;;;;;;;;;;5067390;28;20042;-75
2022/08/02 05:13:33;;;;;;;7.20;3.60;;;;;;;;;;5067524;28;20041;-75
2022/08/02 05:16:01;;;;;;;8.15;3.47;;;;;;;;;;5066600;28;20481;-75
2022/08/02 05:18:30;;;;;;;4.57;3.13;;;;;;;;;;5067683;28;20063;-75
2022/08/02 05:20:56;;;;;;;8.52;3.60;;;;;;;;;;5067010;28;20057;-75
2022/08/02 05:23:22;;;;;;;6.28;3.25;;;;;;;;;;5081796;28;20439;-75
2022/08/02 05:25:48;;;;;;;4.82;3.15;;;;;;;;;;5054051;28;20037;-75
2022/08/02 05:28:14;;;;;;;6.68;3.30;;;;;;;;;;5052381;28;20503;-75
2022/08/02 05:30:40;;;;;;;4.82;3.50;;;;;;;;;;5054653;28;20037;-75
2022/08/02 05:33:06;;;;;;;6.85;3.20;;;;;;;;;;5053730;28;20455;-75
2022/08/02 05:35:33;;;;;;;6.47;3.00;;;;;;;;;;5052653;28;20044;-75
2022/08/02 05:37:59;;;;;;;7.40;2.88;;;;;;;;;;5033954;28;20045;-75
2022/08/02 05:40:25;;;;;;;5.28;3.03;;;;;;;;;;5033370;28;20382;-75
2022/08/02 05:42:51;;;;;;;4.63;3.20;;;;;;;;;;5033978;28;20060;-75
2022/08/02 05:45:17;;;;;;;4.88;2.92;;;;;;;;;;5046048;28;20045;-75
2022/08/02 05:47:43;;;;;;;5.97;3.20;;;;;;;;;;5054923;28;20099;-75
2022/08/02 05:50:10;;;;;;;6.18;3.30;;;;;;;;;;5040627;28;20068;-75
2022/08/02 05:52:48;;;;;;;6.60;3.10;;;;;;;;;;5043848;28;20037;-75
2022/08/02 05:55:28;;;;;;;6.13;2.97;;;;;;;;;;5051630;28;20731;-75
2022/08/02 05:57:54;;;;;;;6.32;2.92;;;;;;;;;;5066133;28;20112;-75
2022/08/02 06:00:20;;;;;;;5.82;3.25;;;;;;;;;;5034704;28;20053;-75
2022/08/02 06:03:04;;;;;;;5.22;3.30;;;;;;;;;;5066292;28;20051;-75
2022/08/02 06:05:35;;;;;;;5.55;3.20;;;;;;;;;;5065211;28;20061;-75
2022/08/02 06:08:01;;;;;;;4.45;2.97;;;;;;;;;;5034571;28;20448;-75
2022/08/02 06:10:28;;;;;;;5.22;2.90;;;;;;;;;;5033778;28;20048;-75
2022/08/02 06:13:08;;;;;;;6.45;3.35;;;;;;;;;;5045930;28;20044;-75
2022/08/02 06:15:34;;;;;;;4.63;3.00;;;;;;;;;;5052542;28;20064;-75
2022/08/02 06:18:02;;;;;;;4.05;2.80;;;;;;;;;;5051935;28;20075;-75
2022/08/02 06:20:34;;;;;;;3.83;2.75;;;;;;;;;;5035766;28;20089;-75
2022/08/02 06:23:00;;;;;;;4.60;2.70;;;;;;;;;;5047645;28;20053;-75
2022/08/02 06:25:27;;;;;;;7.13;3.10;;;;;;;;;;5053215;28;20068;-75
2022/08/02 06:27:53;;;;;;;6.63;3.00;;;;;;;;;;5047260;28;20074;-75
2022/08/02 06:30:19;;;;;;;4.65;2.70;;;;;;;;;;5033778;28;20048;-75
2022/08/02 06:32:46;;;;;;;3.60;2.55;;;;;;;;;;5032975;28;20045;-75
2022/08/02 06:35:12;;;;;;;4.68;2.88;;;;;;;;;;5033674;28;20041;-75
2022/08/02 06:37:41;;;;;;;3.83;2.70;;;;;;;;;;5051071;28;20401;-75
2022/08/02 06:40:11;;;;;;;4.18;2.70;;;;;;;;;;5053236;28;20122;-75
2022/08/02 06:42:44;;;;;;;3.97;2.53;;;;;;;;;;5051889;28;20174;-75
2022/08/02 06:45:10;;;;;;;7.15;3.00;;;;;;;;;;5039011;28;20049;-75
2022/08/02 06:47:36;;;;;;;4.50;2.38;;;;;;;;;;5032828;28;20041;-75
2022/08/02 06:50:02;;;;;;;5.45;2.63;;;;;;;;;;5065617;28;20127;-75
2022/08/02 06:52:32;;;;;;;4.45;2.60;;;;;;;;;;5033503;28;20037;-75
2022/08/02 06:54:59;;;;;;;3.42;2.65;;;;;;;;;;5077555;28;20052;-75
2022/08/02 06:57:26;;;;;;;3.92;2.42;;;;;;;;;;5052291;28;20115;-75
2022/08/02 06:59:52;;;;;;;3.13;2.30;;;;;;;;;;5052127;28;20401;-75
2022/08/02 07:02:18;;;;;;;3.92;2.35;;;;;;;;;;5033307;28;20362;-75
2022/08/02 07:04:44;;;;;;;6.30;2.30;;;;;;;;;;5035342;28;20049;-75
2022/08/02 07:07:10;;;;;;;4.10;2.28;;;;;;;;;;5050530;28;20424;-75
2022/08/02 07:09:36;;;;;;;4.55;2.28;;;;;;;;;;5051962;28;20095;-75
2022/08/02 07:12:02;;;;;;;3.42;2.17;;;;;;;;;;5039455;28;20144;-75
2022/08/02 07:14:28;;;;;;;3.70;2.15;;;;;;;;;;5032175;28;20048;-75
2022/08/02 07:16:54;;;;;;;4.50;2.55;;;;;;;;;;5065148;28;20156;-75
2022/08/02 07:19:20;;;;;;;4.35;2.70;;;;;;;;;;5032942;28;20053;-75
2022/08/02 07:21:46;;;;;;;3.90;2.55;;;;;;;;;;5044340;28;20057;-75
2022/08/02 07:24:12;;;;;;;6.05;2.80;;;;;;;;;;5052677;28;20088;-75
2022/08/02 07:26:38;;;;;;;4.22;2.60;;;;;;;;;;5042706;28;20080;-75
2022/08/02 07:29:04;;;;;;;5.50;2.92;;;;;;;;;;5031976;28;20114;-76
2022/08/02 07:31:30;;;;;;;3.92;2.70;;;;;;;;;;5046725;28;20045;-75
2022/08/02 07:33:56;;;;;;;4.03;2.40;;;;;;;;;;5051487;28;20044;-75
2022/08/02 07:36:22;;;;;;;4.82;2.85;;;;;;;;;;5050668;28;20090;-75
2022/08/02 07:38:49;;;;;;;5.82;2.88;;;;;;;;;;5050175;28;20477;-75
2022/08/02 07:41:15;;;;;;;3.35;2.30;;;;;;;;;;5052446;28;20040;-75
2022/08/02 07:43:41;;;;;;;3.70;2.75;;;;;;;;;;5050632;28;20055;-75
2022/08/02 07:46:07;;;;;;;4.65;2.60;;;;;;;;;;5035579;28;20404;-75
2022/08/02 07:48:33;;;;;;;2.90;2.58;;;;;;;;;;5032856;28;20037;-75
2022/08/02 07:50:59;;;;;;;5.70;2.50;;;;;;;;;;5077843;28;20072;-75
2022/08/02 07:53:25;;;;;;;4.15;2.58;;;;;;;;;;5084608;28;20485;-75
2022/08/02 07:55:51;;;;;;;4.47;2.63;;;;;;;;;;5044487;28;20053;-75
2022/08/02 07:58:17;;;;;;;3.60;2.63;;;;;;;;;;5048744;28;20049;-74
2022/08/02 08:00:43;;;;;;;4.93;3.10;;;;;;;;;;5050202;28;20049;-75
2022/08/02 08:03:09;;;;;;;4.10;2.70;;;;;;;;;;5052523;28;20045;-75
2022/08/02 08:05:35;;;;;;;6.93;3.47;;;;;;;;;;5044028;28;20041;-75
2022/08/02 08:08:02;;;;;;;6.07;3.30;;;;;;;;;;5031083;28;20128;-75
2022/08/02 08:10:28;;;;;;;6.13;3.25;;;;;;;;;;5047612;28;20558;-75
2022/08/02 08:12:54;;;;;;;5.65;3.28;;;;;;;;;;5042672;28;20045;-75
2022/08/02 08:15:20;;;;;;;5.72;3.55;;;;;;;;;;5032588;28;20046;-75
2022/08/02 08:17:46;;;;;;;6.30;3.85;;;;;;;;;;5030364;28;20048;-75
2022/08/02 08:20:12;;;;;;;5.47;4.05;;;;;;;;;;5031674;28;20580;-75
2022/08/02 08:22:38;;;;;;;6.18;4.15;;;;;;;;;;5063968;28;20134;-76
2022/08/02 08:25:04;;;;;;;4.32;3.90;;;;;;;;;;5031687;28;20122;-75
2022/08/02 08:27:30;;;;;;;6.82;4.50;;;;;;;;;;5073282;28;20068;-75
2022/08/02 08:29:56;;;;;;;7.80;4.95;;;;;;;;;;5035813;28;20099;-75
2022/08/02 08:32:22;;;;;;;6.72;4.80;;;;;;;;;;5031559;28;20505;-75
2022/08/02 08:34:50;;;;;;;7.10;4.78;;;;;;;;;;5064347;28;20124;-75
2022/08/02 08:37:16;;;;;;;5.75;5.00;;;;;;;;;;5030819;28;20058;-75
2022/08/02 08:39:42;;;;;;;9.13;4.80;;;;;;;;;;5037942;28;20401;-75
2022/08/02 08:42:08;;;;;;;7.63;5.57;;;;;;;;;;5051951;28;20187;-75
2022/08/02 08:44:35;;;;;;;6.30;4.43;;;;;;;;;;5050610;28;20473;-75
2022/08/02 08:47:02;;;;;;;7.10;5.40;;;;;;;;;;5051149;28;20094;-75
2022/08/02 08:49:33;;;;;;;8.05;5.18;;;;;;;;;;5036669;28;20048;-76
2022/08/02 08:52:02;;;;;;;9.35;5.35;;;;;;;;;;5032098;28;20132;-76
2022/08/02 08:54:29;;;;;;;7.25;5.25;;;;;;;;;;5031373;28;20133;-76
2022/08/02 08:56:55;;;;;;;7.90;5.40;;;;;;;;;;5032150;28;20120;-75
2022/08/02 08:59:21;;;;;;;8.35;5.15;;;;;;;;;;5035256;28;20138;-75
2022/08/02 09:01:49;;;;;;;8.95;5.95;;;;;;;;;;5066887;28;20136;-75
2022/08/02 09:04:15;;;;;;;6.05;5.45;;;;;;;;;;5047000;28;20045;-75
2022/08/02 09:06:41;;;;;;;8.95;5.90;;;;;;;;;;5036584;28;20121;-75
2022/08/02 09:09:07;;;;;;;8.75;5.82;;;;;;;;;;5035292;28;20072;-76
2022/08/02 09:11:33;;;;;;;6.50;5.80;;;;;;;;;;5085165;28;20045;-75
2022/08/02 09:14:00;;;;;;;9.18;6.40;;;;;;;;;;5053324;28;20114;-75
2022/08/02 09:16:30;;;;;;;6.38;5.80;;;;;;;;;;5054031;28;20068;-75
2022/08/02 09:18:56;;;;;;;8.40;6.40;;;;;;;;;;5050995;28;20037;-75
2022/08/02 09:21:23;;;;;;;10.65;7.15;;;;;;;;;;5034299;28;20083;-75
2022/08/02 09:23:50;;;;;;;10.60;6.10;;;;;;;;;;5035097;28;20053;-75
2022/08/02 09:26:17;;;;;;;7.60;6.05;;;;;;;;;;5035797;28;20049;-75
2022/08/02 09:28:45;;;;;;;10.50;6.00;;;;;;;;;;5034262;28;20048;-75
2022/08/02 09:31:12;;;;;;;9.52;7.18;;;;;;;;;;5066948;28;20409;-75
2022/08/02 09:33:38;;;;;;;8.35;6.57;;;;;;;;;;5069353;28;20088;-75
2022/08/02 09:36:06;;;;;;;8.85;7.07;;;;;;;;;;5051117;28;20049;-75
2022/08/02 09:38:32;;;;;;;8.13;6.68;;;;;;;;;;5067118;28;20444;-75
2022/08/02 09:40:59;;;;;;;11.35;7.03;;;;;;;;;;5067087;28;20434;-75
2022/08/02 09:43:54;;;;;;;8.77;7.03;;;;;;;;;;5065841;28;20053;-75
2022/08/02 09:46:24;;;;;;;8.02;7.22;;;;;;;;;;5034293;28;20060;-75
2022/08/02 09:48:52;;;;;;;9.98;7.47;;;;;;;;;;5033801;28;20088;-75
2022/08/02 09:51:19;;;;;;;9.65;7.28;;;;;;;;;;5066814;28;20049;-75
2022/08/02 09:53:46;;;;;;;10.30;8.07;;;;;;;;;;5066798;28;20552;-75
2022/08/02 09:56:13;;;;;;;8.50;7.60;;;;;;;;;;5065997;28;20045;-75
2022/08/02 09:58:39;;;;;;;9.88;7.40;;;;;;;;;;5085601;28;20326;-75
2022/08/02 10:01:05;;;;;;;10.48;8.27;;;;;;;;;;5053186;28;20045;-75
2022/08/02 10:03:31;;;;;;;10.43;7.60;;;;;;;;;;5051953;28;20049;-75
2022/08/02 10:05:58;;;;;;;7.63;6.93;;;;;;;;;;5042198;28;20404;-75
2022/08/02 10:08:25;;;;;;;10.60;8.68;;;;;;;;;;5065777;28;20052;-75
2022/08/02 10:10:59;;;;;;;11.30;8.15;;;;;;;;;;5035714;28;20103;-75
2022/08/02 10:13:27;;;;;;;9.48;8.07;;;;;;;;;;5044491;28;20103;-75
2022/08/02 10:15:54;;;;;;;11.18;8.18;;;;;;;;;;5054071;28;20047;-75
2022/08/02 10:18:20;;;;;;;13.05;8.70;;;;;;;;;;5053371;28;20053;-75
2022/08/02 10:20:47;;;;;;;11.10;9.07;;;;;;;;;;5052731;28;20051;-75
2022/08/02 10:23:13;;;;;;;10.77;8.93;;;;;;;;;;5042077;28;20081;-75
2022/08/02 10:25:40;;;;;;;9.38;8.38;;;;;;;;;;5033465;28;20049;-75
2022/08/02 10:28:06;;;;;;;9.75;8.82;;;;;;;;;;5046431;28;20052;-75
2022/08/02 10:30:34;;;;;;;10.57;9.57;;;;;;;;;;5048470;28;20132;-75
2022/08/02 10:33:00;;;;;;;10.55;9.45;;;;;;;;;;5085534;28;20485;-75
2022/08/02 10:35:26;;;;;;;10.43;9.32;;;;;;;;;;5053940;28;20044;-75
2022/08/02 10:38:02;;;;;;;10.05;9.00;;;;;;;;;;5041352;28;20187;-75
2022/08/02 10:40:46;;;;;;;10.63;8.82;;;;;;;;;;5033615;28;20455;-75
2022/08/02 10:43:13;;;;;;;13.32;10.07;;;;;;;;;;5065467;28;20493;-75
2022/08/02 10:45:39;;;;;;;11.43;9.98;;;;;;;;;;5076677;28;20504;-75
2022/08/02 10:48:10;;;;;;;11.30;8.90;;;;;;;;;;5050451;28;20049;-75
2022/08/02 10:50:45;;;;;;;10.85;9.75;;;;;;;;;;5053585;28;20476;-75
2022/08/02 10:53:24;;;;;;;11.63;9.98;;;;;;;;;;5039983;28;20498;-75
2022/08/02 10:55:51;;;;;;;9.73;8.65;;;;;;;;;;5033520;28;20489;-75
2022/08/02 10:58:22;;;;;;;11.65;9.70;;;;;;;;;;5033937;28;20065;-75
2022/08/02 11:00:48;;;;;;;14.13;10.43;;;;;;;;;;5031283;28;20477;-75
2022/08/02 11:03:33;;;;;;;11.27;9.45;;;;;;;;;;5033317;28;20397;-75
2022/08/02 11:06:19;;;;;;;10.20;8.82;;;;;;;;;;5032019;28;20056;-75
2022/08/02 11:08:45;;;;;;;11.98;9.23;;;;;;;;;;5032091;28;20128;-75
2022/08/02 11:11:11;;;;;;;9.80;8.80;;;;;;;;;;5037244;28;20067;-75
2022/08/02 11:13:56;;;;;;;8.95;8.00;;;;;;;;;;5051042;28;20128;-75
2022/08/02 11:16:22;;;;;;;11.27;8.85;;;;;;;;;;5051821;28;20083;-75
2022/08/02 11:18:51;;;;;;;10.27;8.65;;;;;;;;;;5053027;28;20040;-75
2022/08/02 11:21:21;;;;;;;10.68;8.35;;;;;;;;;;5034545;28;20057;-75
2022/08/02 11:23:48;;;;;;;9.32;8.27;;;;;;;;;;5033049;28;20053;-75
2022/08/02 11:26:32;;;;;;;10.00;8.90;;;;;;;;;;5045480;28;20488;-75
2022/08/02 11:28:59;;;;;;;11.45;9.13;;;;;;;;;;5051079;28;20087;-75
2022/08/02 11:31:25;;;;;;;10.43;7.90;;;;;;;;;;5052558;28;20499;-75
2022/08/02 11:33:51;;;;;;;9.55;8.35;;;;;;;;;;5047200;28;20045;-75
2022/08/02 11:36:18;;;;;;;9.10;8.07;;;;;;;;;;5050791;28;20540;-75
2022/08/02 11:38:44;;;;;;;9.95;7.85;;;;;;;;;;5043933;28;20393;-75
2022/08/02 11:41:20;;;;;;;8.98;7.70;;;;;;;;;;5065048;28;20140;-75
2022/08/02 11:43:46;;;;;;;8.35;7.45;;;;;;;;;;5032583;28;20103;-75
2022/08/02 11:46:14;;;;;;;10.02;7.35;;;;;;;;;;5033050;28;20133;-75
2022/08/02 11:48:40;;;;;;;8.77;7.35;;;;;;;;;;5032316;28;20095;-75
2022/08/02 11:51:08;;;;;;;10.43;8.15;;;;;;;;;;5032465;28;20131;-75
2022/08/02 11:53:57;;;;;;;10.45;8.75;;;;;;;;;;5064559;28;20537;-75
2022/08/02 11:56:33;;;;;;;9.77;8.80;;;;;;;;;;5044680;28;20075;-75
2022/08/02 11:59:02;;;;;;;12.73;8.95;;;;;;;;;;5039836;28;20048;-75
2022/08/02 12:01:29;;;;;;;11.18;8.68;;;;;;;;;;5064858;28;20489;-75
2022/08/02 12:04:02;;;;;;;10.00;8.98;;;;;;;;;;5031422;28;20124;-75
2022/08/02 12:06:28;;;;;;;10.05;9.10;;;;;;;;;;5032767;28;20049;-75
2022/08/02 12:09:12;;;;;;;9.43;8.50;;;;;;;;;;5046466;28;20048;-75
2022/08/02 12:11:38;;;;;;;10.90;9.10;;;;;;;;;;5051858;28;20073;-75
2022/08/02 12:14:05;;;;;;;9.30;8.40;;;;;;;;;;5038820;28;20064;-75
2022/08/02 12:19:25;;;;;;;11.63;10.52;;;;;;;;;;5047822;28;20501;-75
2022/08/02 12:22:08;;;;;;;10.70;9.60;;;;;;;;;;5030417;28;20137;-75
2022/08/02 12:24:34;;;;;;;10.80;9.70;;;;;;;;;;5044258;28;20049;-75
2022/08/02 12:27:00;;;;;;;12.20;10.20;;;;;;;;;;5051054;28;20049;-75
2022/08/02 12:29:31;;;;;;;10.85;9.27;;;;;;;;;;5035234;28;20057;-75
2022/08/02 12:31:57;;;;;;;11.00;9.45;;;;;;;;;;5032471;28;20053;-75
2022/08/02 12:34:24;;;;;;;10.75;8.75;;;;;;;;;;5035702;28;20577;-75
2022/08/02 12:37:06;;;;;;;11.18;8.60;;;;;;;;;;5068081;28;20072;-75
2022/08/02 12:39:41;;;;;;;9.57;8.50;;;;;;;;;;5067401;28;20060;-76
2022/08/02 12:42:09;;;;;;;11.43;8.30;;;;;;;;;;5035796;28;20045;-75
2022/08/02 12:44:39;;;;;;;9.07;7.57;;;;;;;;;;5035840;28;20112;-75
2022/08/02 12:47:06;;;;;;;10.13;7.72;;;;;;;;;;5035924;28;20038;-75
2022/08/02 12:49:32;;;;;;;8.00;6.82;;;;;;;;;;5067578;28;20061;-75
2022/08/02 12:51:58;;;;;;;9.30;7.43;;;;;;;;;;5034944;28;20467;-75
2022/08/02 12:54:26;;;;;;;7.82;7.07;;;;;;;;;;5044269;28;20044;-75
2022/08/02 12:56:52;;;;;;;8.18;7.32;;;;;;;;;;5054422;28;20481;-75
2022/08/02 12:59:33;;;;;;;10.18;7.38;;;;;;;;;;5037058;28;20128;-75
2022/08/02 13:02:07;;;;;;;8.50;7.30;;;;;;;;;;5035961;28;20033;-76
2022/08/02 13:04:33;;;;;;;7.18;6.47;;;;;;;;;;5067517;28;20056;-75
2022/08/02 13:06:59;;;;;;;8.70;6.22;;;;;;;;;;5034694;28;20099;-75
2022/08/02 13:09:25;;;;;;;8.27;6.00;;;;;;;;;;5067050;28;20103;-75
2022/08/02 13:11:51;;;;;;;6.50;5.57;;;;;;;;;;5035727;28;20041;-75
2022/08/02 13:14:17;;;;;;;6.70;5.13;;;;;;;;;;5034368;28;20041;-75
2022/08/02 13:16:44;;;;;;;6.22;5.40;;;;;;;;;;5086458;28;20051;-75
2022/08/02 13:19:12;;;;;;;5.57;4.80;;;;;;;;;;5050926;28;20041;-76
2022/08/02 13:21:38;;;;;;;7.82;4.85;;;;;;;;;;5066274;28;20065;-75
2022/08/02 13:24:04;;;;;;;6.30;4.57;;;;;;;;;;5066755;28;20493;-75
2022/08/02 13:26:30;;;;;;;5.13;4.25;;;;;;;;;;5034026;28;20047;-75
2022/08/02 13:28:56;;;;;;;5.32;4.65;;;;;;;;;;5034198;28;20045;-75
2022/08/02 13:31:22;;;;;;;5.22;4.45;;;;;;;;;;5035162;28;20049;-75
2022/08/02 13:33:48;;;;;;;8.27;4.70;;;;;;;;;;5034805;28;20132;-75
2022/08/02 13:36:14;;;;;;;6.03;4.28;;;;;;;;;;5034597;28;20128;-75
2022/08/02 13:38:40;;;;;;;4.72;4.00;;;;;;;;;;5034566;28;20572;-75
2022/08/02 13:41:09;;;;;;;5.88;4.72;;;;;;;;;;5066631;28;20079;-75
2022/08/02 13:43:39;;;;;;;6.35;4.50;;;;;;;;;;5033939;28;20401;-75
2022/08/02 13:46:05;;;;;;;6.80;4.10;;;;;;;;;;5046035;28;20439;-75
2022/08/02 13:48:31;;;;;;;7.07;4.40;;;;;;;;;;5053608;28;20197;-75
2022/08/02 13:50:57;;;;;;;6.75;4.30;;;;;;;;;;5054782;28;20041;-75
2022/08/02 13:53:25;;;;;;;7.20;4.30;;;;;;;;;;5053102;28;20048;-75
2022/08/02 13:55:51;;;;;;;6.25;4.78;;;;;;;;;;5032459;28;20060;-75
2022/08/02 13:58:17;;;;;;;4.43;3.95;;;;;;;;;;5033425;28;20053;-75
2022/08/02 14:00:43;;;;;;;6.22;3.97;;;;;;;;;;5034340;28;20504;-75
2022/08/02 14:03:09;;;;;;;7.63;3.83;;;;;;;;;;5031936;28;20485;-75
2022/08/02 14:05:39;;;;;;;4.53;3.38;;;;;;;;;;5066258;28;20054;-75
2022/08/02 14:08:05;;;;;;;7.05;3.38;;;;;;;;;;5034453;28;20136;-75
2022/08/02 14:10:31;;;;;;;5.80;3.45;;;;;;;;;;5068711;28;20125;-75
2022/08/02 14:12:57;;;;;;;4.25;3.40;;;;;;;;;;5053164;28;20044;-76
2022/08/02 14:15:23;;;;;;;5.13;3.05;;;;;;;;;;5049009;28;20037;-75
2022/08/02 14:17:49;;;;;;;6.15;2.90;;;;;;;;;;5051897;28;20049;-75